Bozoo, West Virginia
Current Conditions -  °F | °C
As of 9:35 AM on Thursday 30 Oct 2014 (Local Time) from KPSK Reporting Station
Clear Clear  
Wind Chill: 43°   Ceiling: Unl
Heat Index: 45°   Visibility: 10mi
Dew Point: 38°   Wind: 5mph
Humidity: 75%   Direction: 310°NW
Pressure: 30.12"   Gusts: NA
Location:  37.4216°N, 80.7343°W
Report Text: KPSK 301335Z AUTO 31004KT 10SM CLR 07/03 A3012 RMK AO2 T00740032
Loading
Personal Weather Stations






























Interactive Weather Map
Tropical Storm Tracking
New forecast layout! Learn more

10-Day Weather Forecast

Advertisements
Track Severe Weather on mobile